Time;durP1;ratioP1;P1;durP2;ratioP2;P2;SDS_P1;SDS_P2;PMS_P1;PMS_P2;Temp;Humidity;BMP_temperature;BMP_pressure;BME280_temperature;BME280_humidity;BME280_pressure;Samples;Min_cycle;Max_cycle;Signal;HPM_P1;HPM_P2
2023/10/13 04:39:56;;;;;;;0.80;0.80;;;;;;;6.49;95.21;98190.28;5511783;24;20055;-85
2023/10/13 04:42:39;;;;;;;0.85;0.85;;;;;;;6.58;94.58;98188.81;4786356;29;20083;-84
2023/10/13 04:56:07;;;;;;;0.80;0.80;;;;;;;7.10;91.36;98206.69;4765357;30;20055;-89
2023/10/13 05:46:20;;;;;;;0.70;0.70;;;;;;;7.47;87.41;98276.88;4759906;30;20059;-93
2023/10/13 05:51:43;;;;;;;0.80;0.80;;;;;;;7.57;86.46;98278.91;4752937;30;20394;-85
2023/10/13 06:28:42;;;;;;;0.80;0.80;;;;;;;8.07;81.83;98341.78;4434657;30;10000028;-85
2023/10/13 06:31:22;;;;;;;0.80;0.80;;;;;;;8.00;80.83;98331.19;4779086;30;20059;-84
2023/10/13 06:33:50;;;;;;;0.70;0.70;;;;;;;7.92;81.43;98337.78;4782612;29;20073;-86
2023/10/13 06:36:17;;;;;;;0.68;0.68;;;;;;;7.88;82.06;98341.22;4763890;30;20060;-85
2023/10/13 06:38:52;;;;;;;0.80;0.80;;;;;;;7.86;82.16;98349.50;4765135;30;20128;-84
2023/10/13 06:41:19;;;;;;;0.70;0.70;;;;;;;7.79;82.78;98346.97;4765857;30;20233;-84
2023/10/13 06:43:58;;;;;;;0.70;0.70;;;;;;;7.69;84.24;98352.16;4765663;30;20048;-82
2023/10/13 06:46:33;;;;;;;0.70;0.70;;;;;;;7.64;85.21;98365.50;4767912;30;20079;-84
2023/10/13 06:49:02;;;;;;;0.73;0.73;;;;;;;7.60;86.20;98373.25;4768480;30;20090;-84
2023/10/13 06:51:37;;;;;;;0.73;0.73;;;;;;;7.52;86.18;98370.09;4769596;30;20142;-85
2023/10/13 06:54:11;;;;;;;0.70;0.70;;;;;;;7.59;86.80;98381.53;4760885;30;20568;-86
2023/10/13 06:56:41;;;;;;;0.73;0.73;;;;;;;7.67;86.56;98378.47;4767045;30;20202;-87
2023/10/13 06:59:08;;;;;;;0.70;0.70;;;;;;;7.72;85.47;98392.00;4760830;30;20093;-88
2023/10/13 07:01:39;;;;;;;0.70;0.70;;;;;;;7.71;85.60;98394.91;4756392;30;20578;-88
2023/10/13 07:04:21;;;;;;;0.70;0.70;;;;;;;7.79;85.64;98392.63;4758207;30;20071;-88
2023/10/13 07:06:49;;;;;;;0.70;0.70;;;;;;;7.84;85.40;98399.97;4766418;30;20095;-87
2023/10/13 07:12:06;;;;;;;0.70;0.70;;;;;;;7.98;83.83;98411.25;4769403;30;20055;-87
2023/10/13 07:14:34;;;;;;;0.60;0.60;;;;;;;7.98;82.46;98416.63;4769538;30;20133;-86
2023/10/13 07:17:05;;;;;;;0.70;0.70;;;;;;;7.98;82.53;98425.50;4769704;30;20445;-85
2023/10/13 07:19:33;;;;;;;0.70;0.70;;;;;;;7.94;81.73;98418.97;4769269;30;20058;-86
2023/10/13 07:22:19;;;;;;;0.85;0.85;;;;;;;8.07;81.45;98415.16;4738033;30;20047;-86
2023/10/13 07:24:48;;;;;;;0.70;0.70;;;;;;;8.18;79.79;98427.72;4769260;30;20161;-86
2023/10/13 07:27:24;;;;;;;0.90;0.90;;;;;;;8.39;78.03;98433.44;4768402;30;20109;-87
2023/10/13 07:33:00;;;;;;;0.70;0.70;;;;;;;8.78;74.71;98437.03;4777426;30;20074;-87
2023/10/13 07:35:30;;;;;;;0.70;0.70;;;;;;;8.64;73.80;98446.50;4779923;30;20051;-86
2023/10/13 07:37:59;;;;;;;0.70;0.70;;;;;;;8.59;72.43;98431.09;4784464;30;20108;-87
2023/10/13 07:43:09;;;;;;;0.80;0.80;;;;;;;8.88;71.77;98460.56;4776144;30;20142;-83
2023/10/13 07:45:37;;;;;;;0.70;0.70;;;;;;;8.85;71.12;98445.75;4756505;30;20160;-85
2023/10/13 07:48:12;;;;;;;0.70;0.70;;;;;;;8.87;69.53;98456.28;4777207;30;20187;-86
2023/10/13 07:50:40;;;;;;;0.80;0.80;;;;;;;9.25;68.02;98468.09;4778476;30;20487;-85
2023/10/13 07:53:22;;;;;;;0.70;0.70;;;;;;;9.14;68.18;98459.09;4783687;30;20066;-86
2023/10/13 07:56:03;;;;;;;0.90;0.90;;;;;;;9.55;66.41;98463.09;4768472;30;20052;-83
2023/10/13 07:58:31;;;;;;;0.80;0.80;;;;;;;10.48;62.16;98469.47;4784252;29;20052;-82
2023/10/13 08:01:08;;;;;;;0.80;0.80;;;;;;;10.74;59.73;98455.13;4783947;30;20105;-85
2023/10/13 08:03:44;;;;;;;0.90;0.90;;;;;;;10.77;59.54;98473.50;4772735;30;20119;-82
2023/10/13 08:08:50;;;;;;;0.90;0.90;;;;;;;11.01;56.71;98490.16;4773441;30;21314;-85
2023/10/13 08:13:59;;;;;;;1.00;1.00;;;;;;;11.07;57.61;98505.28;4761498;30;20043;-87
2023/10/13 08:17:00;;;;;;;0.90;0.90;;;;;;;11.81;55.26;98475.69;4770519;30;20588;-86
2023/10/13 08:19:39;;;;;;;0.85;0.85;;;;;;;12.39;54.24;98492.63;4771066;30;20059;-87
2023/10/13 08:30:29;;;;;;;1.00;1.00;;;;;;;11.90;53.17;98517.34;4768206;30;20055;-86
2023/10/13 08:32:58;;;;;;;0.90;0.90;;;;;;;13.15;50.95;98518.06;4768303;30;20067;-85
2023/10/13 08:35:34;;;;;;;0.75;0.75;;;;;;;12.32;51.39;98521.81;4768596;30;20491;-85
2023/10/13 08:38:13;;;;;;;0.80;0.80;;;;;;;11.83;52.03;98539.22;4768716;30;20539;-86
2023/10/13 08:43:50;;;;;;;0.70;0.70;;;;;;;11.06;52.81;98540.66;4768993;30;20059;-85
2023/10/13 08:46:29;;;;;;;0.90;0.90;;;;;;;11.43;52.79;98548.75;4768374;30;20066;-85
2023/10/13 08:49:05;;;;;;;0.60;0.60;;;;;;;11.74;51.08;98540.78;4781545;30;20081;-85
2023/10/13 08:51:43;;;;;;;0.65;0.65;;;;;;;11.27;52.57;98561.34;4768450;30;20059;-88
2023/10/13 08:54:19;;;;;;;0.80;0.80;;;;;;;11.61;51.35;98549.38;4767876;30;20053;-86
2023/10/13 08:57:19;;;;;;;;;;;;;;;11.80;50.87;98555.13;4767898;30;20078;-85
2023/10/13 08:59:53;;;;;;;0.70;0.70;;;;;;;12.47;49.49;98554.31;4768111;30;19929;-87
2023/10/13 09:05:51;;;;;;;1.00;1.00;;;;;;;13.42;46.38;98540.28;4767698;30;20056;-87
2023/10/13 09:08:34;;;;;;;0.63;0.63;;;;;;;13.59;45.23;98568.97;4767012;30;20420;-87
2023/10/13 09:11:12;;;;;;;0.60;0.60;;;;;;;12.60;47.31;98579.25;4769583;30;20432;-86
2023/10/13 09:13:43;;;;;;;0.70;0.70;;;;;;;11.97;48.83;98595.53;4770919;30;20062;-85
2023/10/13 09:16:22;;;;;;;0.80;0.80;;;;;;;11.66;49.64;98585.34;4772156;30;20419;-87
2023/10/13 09:18:52;;;;;;;0.60;0.60;;;;;;;11.19;51.36;98599.66;4771628;30;20055;-87
2023/10/13 09:24:43;;;;;;;0.70;0.70;;;;;;;10.67;52.47;98600.25;4771289;30;20468;-87
2023/10/13 09:27:04;;;;;;;0.75;0.75;;;;;;;10.75;52.04;98601.69;4771573;30;20139;-87
2023/10/13 09:30:01;;;;;;;1.00;1.00;;;;;;;12.39;48.49;98595.44;4771333;30;20056;-86
2023/10/13 09:32:45;;;;;;;1.05;1.05;;;;;;;13.29;45.89;98586.09;4779941;24;20055;-85
2023/10/13 09:35:22;;;;;;;1.20;1.20;;;;;;;14.46;43.76;98591.16;4788920;29;20568;-86
2023/10/13 09:37:51;;;;;;;1.20;1.20;;;;;;;16.16;40.51;98599.50;4789817;29;20192;-87
2023/10/13 09:40:25;;;;;;;0.90;0.90;;;;;;;16.40;39.87;98607.63;4786994;30;20079;-87
2023/10/13 09:42:55;;;;;;;0.70;0.70;;;;;;;15.11;42.01;98612.75;4787258;29;20404;-85
2023/10/13 09:45:28;;;;;;;0.70;0.70;;;;;;;14.49;43.63;98619.66;4787566;30;20506;-85
2023/10/13 09:48:16;;;;;;;0.70;0.70;;;;;;;14.09;44.00;98640.44;4787130;30;20055;-87
2023/10/13 09:51:01;;;;;;;1.00;1.00;;;;;;;15.22;41.02;98628.97;4779584;29;20055;-87
2023/10/13 09:53:31;;;;;;;1.10;1.10;;;;;;;15.98;39.49;98617.41;4802583;29;20138;-87
2023/10/13 09:56:19;;;;;;;0.70;0.70;;;;;;;14.74;40.97;98629.59;4787721;30;20059;-87
2023/10/13 09:58:51;;;;;;;1.10;1.10;;;;;;;15.76;40.29;98634.22;4787545;30;20055;-87
2023/10/13 10:01:37;;;;;;;1.00;1.00;;;;;;;16.28;38.72;98642.66;4788362;29;20522;-87
2023/10/13 10:04:18;;;;;;;0.60;0.60;;;;;;;15.10;40.82;98635.59;4788584;29;20067;-87
2023/10/13 10:07:02;;;;;;;1.10;1.10;;;;;;;16.02;40.15;98640.22;4788741;29;20124;-86
2023/10/13 10:09:34;;;;;;;0.60;0.60;;;;;;;14.39;42.06;98644.13;4772856;30;20090;-87
2023/10/13 10:12:35;;;;;;;0.70;0.70;;;;;;;13.31;44.08;98638.91;4789556;29;20059;-85
2023/10/13 10:15:35;;;;;;;0.50;0.50;;;;;;;12.36;46.24;98663.63;4750438;30;20067;-86
2023/10/13 10:18:03;;;;;;;0.70;0.70;;;;;;;12.18;46.62;98658.66;4750331;30;20136;-87
2023/10/13 10:20:43;;;;;;;0.60;0.60;;;;;;;12.22;46.34;98651.66;4750365;30;20076;-87
2023/10/13 10:23:28;;;;;;;0.82;0.82;;;;;;;12.31;46.12;98663.59;4750360;30;20211;-87
2023/10/13 10:26:25;;;;;;;0.60;0.60;;;;;;;12.46;46.08;98660.97;4749756;30;20216;-89
2023/10/13 10:28:54;;;;;;;0.60;0.60;;;;;;;12.70;45.58;98671.31;4751446;30;20455;-86
2023/10/13 10:31:34;;;;;;;0.60;0.60;;;;;;;12.81;45.12;98670.25;4737366;30;20144;-87
2023/10/13 10:34:29;;;;;;;0.90;0.90;;;;;;;13.12;45.57;98659.50;4736132;30;20064;-85
2023/10/13 10:36:58;;;;;;;1.00;1.00;;;;;;;14.96;41.71;98669.91;4751303;30;20115;-86
2023/10/13 10:39:45;;;;;;;1.05;1.05;;;;;;;16.08;39.54;98662.75;4749989;30;20147;-87
2023/10/13 10:42:22;;;;;;;1.10;1.10;;;;;;;15.97;39.30;98670.19;4749849;30;20052;-87
2023/10/13 10:44:55;;;;;;;0.60;0.60;;;;;;;14.58;41.61;98672.28;4749750;30;20092;-85
2023/10/13 10:47:36;;;;;;;0.57;0.57;;;;;;;14.81;40.81;98692.59;4721351;30;20079;-87
2023/10/13 10:50:34;;;;;;;0.65;0.65;;;;;;;13.58;43.11;98700.19;4728757;30;20082;-86
2023/10/13 10:53:08;;;;;;;0.60;0.60;;;;;;;13.09;43.38;98706.91;4787756;29;20412;-87
2023/10/13 10:55:58;;;;;;;0.75;0.75;;;;;;;13.26;43.23;98712.06;4787625;29;20154;-86
2023/10/13 10:58:43;;;;;;;0.90;0.90;;;;;;;13.18;44.03;98691.72;4787663;29;20058;-87
2023/10/13 11:01:12;;;;;;;1.00;1.00;;;;;;;14.77;41.54;98699.66;4787288;29;20508;-85
2023/10/13 11:03:41;;;;;;;0.60;0.60;;;;;;;15.07;40.74;98714.16;4787802;29;20188;-85
2023/10/13 11:06:17;;;;;;;1.10;1.10;;;;;;;15.26;40.62;98728.72;4787366;29;20055;-86
2023/10/13 11:08:51;;;;;;;0.82;0.82;;;;;;;14.38;41.59;98721.22;4787520;29;20062;-88
2023/10/13 11:11:34;;;;;;;1.00;1.00;;;;;;;16.30;38.96;98724.03;4785696;30;20109;-86
2023/10/13 11:14:14;;;;;;;0.70;0.70;;;;;;;15.37;40.10;98710.44;4788370;24;20071;-86
2023/10/13 11:17:26;;;;;;;0.90;0.90;;;;;;;15.72;38.96;98730.31;4769519;30;20089;-86
2023/10/13 11:19:44;;;;;;;1.10;1.10;;;;;;;15.04;40.17;98729.13;4769929;30;20067;-88
2023/10/13 11:25:09;;;;;;;0.82;0.82;;;;;;;16.96;37.19;98734.19;4769371;30;20077;-86
2023/10/13 11:30:25;;;;;;;1.00;1.00;;;;;;;18.10;34.45;98740.34;4769346;30;20524;-85
2023/10/13 11:32:59;;;;;;;;;;;;;;;17.83;35.23;98746.56;4769772;30;20063;-86
2023/10/13 11:35:48;;;;;;;1.00;1.00;;;;;;;17.81;35.22;98767.88;4769521;30;19929;-86
2023/10/13 11:38:25;;;;;;;0.70;0.70;;;;;;;17.91;34.69;98769.63;4769586;30;20240;-86
2023/10/13 11:41:12;;;;;;;0.80;0.80;;;;;;;16.18;36.98;98766.09;4769982;30;20117;-87
2023/10/13 11:43:52;;;;;;;0.40;0.40;;;;;;;15.19;38.61;98766.25;4768992;30;20515;-86
2023/10/13 11:49:18;;;;;;;0.60;0.60;;;;;;;16.73;36.18;98763.03;4767151;30;20083;-82
2023/10/13 11:51:48;;;;;;;0.60;0.60;;;;;;;16.12;36.55;98767.25;4767306;30;20122;-83
2023/10/13 11:54:17;;;;;;;1.00;1.00;;;;;;;16.28;37.24;98776.09;4766881;30;20064;-85
2023/10/13 11:56:47;;;;;;;1.00;1.00;;;;;;;17.68;35.23;98763.97;4760078;30;20047;-86
2023/10/13 11:59:18;;;;;;;0.90;0.90;;;;;;;18.10;34.55;98762.19;4761913;30;20119;-83
2023/10/13 12:04:56;;;;;;;0.95;0.95;;;;;;;18.87;33.36;98763.53;4767655;30;20511;-86
2023/10/13 12:07:39;;;;;;;0.90;0.90;;;;;;;18.81;33.30;98767.44;4768045;30;20055;-84
2023/10/13 12:10:15;;;;;;;0.90;0.90;;;;;;;18.47;33.50;98765.91;4765473;30;20069;-82
2023/10/13 12:12:46;;;;;;;1.00;1.00;;;;;;;18.37;33.99;98766.09;4762504;30;20055;-84
2023/10/13 12:15:25;;;;;;;0.90;0.90;;;;;;;18.39;34.06;98761.16;4760338;30;20082;-84
2023/10/13 12:17:57;;;;;;;0.95;0.95;;;;;;;18.55;33.13;98783.53;4767958;30;20113;-83
2023/10/13 12:20:32;;;;;;;0.90;0.90;;;;;;;18.14;33.47;98762.41;4765654;30;20433;-84
2023/10/13 12:23:15;;;;;;;0.90;0.90;;;;;;;18.17;33.46;98765.34;4742153;30;20500;-83
2023/10/13 12:26:00;;;;;;;0.90;0.90;;;;;;;18.55;33.30;98762.47;4755391;30;20059;-83
2023/10/13 12:28:28;;;;;;;0.85;0.85;;;;;;;18.93;33.16;98777.88;4760470;30;20066;-82
2023/10/13 12:31:01;;;;;;;0.90;0.90;;;;;;;18.99;32.09;98772.03;4762079;30;20526;-82
2023/10/13 12:33:40;;;;;;;0.90;0.90;;;;;;;18.93;32.44;98767.75;4762228;30;20060;-81
2023/10/13 12:50:08;;;;;;;0.90;0.90;;;;;;;18.30;33.40;98787.53;4713932;30;20061;-81
2023/10/13 12:52:36;;;;;;;0.80;0.80;;;;;;;18.56;33.32;98788.69;4713918;30;20079;-82
2023/10/13 12:55:06;;;;;;;0.82;0.82;;;;;;;18.73;32.71;98787.28;4698040;30;20057;-84
2023/10/13 12:57:42;;;;;;;0.80;0.80;;;;;;;18.67;32.93;98780.31;4706357;30;20154;-83
2023/10/13 13:00:21;;;;;;;0.90;0.90;;;;;;;18.60;33.20;98786.97;4714416;30;20057;-82
2023/10/13 13:02:51;;;;;;;0.80;0.80;;;;;;;18.49;33.10;98806.59;4679989;30;20437;-82
2023/10/13 13:05:22;;;;;;;0.70;0.70;;;;;;;17.84;33.56;98807.41;4714263;30;20065;-82
2023/10/13 13:08:06;;;;;;;0.90;0.90;;;;;;;17.29;34.26;98803.28;4714072;30;20143;-82
2023/10/13 13:10:36;;;;;;;0.90;0.90;;;;;;;17.57;34.26;98803.41;4700067;30;20061;-84
2023/10/13 13:13:05;;;;;;;0.80;0.80;;;;;;;17.75;33.88;98807.25;4713417;30;20080;-83
2023/10/13 13:15:35;;;;;;;0.90;0.90;;;;;;;17.50;34.20;98805.72;4714403;30;20064;-82
2023/10/13 13:18:11;;;;;;;0.90;0.90;;;;;;;17.36;34.49;98816.53;4700247;30;20064;-82
2023/10/13 13:20:39;;;;;;;0.85;0.85;;;;;;;17.67;34.11;98824.28;4714182;30;20529;-82
2023/10/13 13:23:12;;;;;;;0.90;0.90;;;;;;;17.75;34.03;98819.00;4714539;30;20633;-80
2023/10/13 13:25:45;;;;;;;0.80;0.80;;;;;;;17.73;34.11;98823.13;4719297;30;20061;-80
2023/10/13 13:28:13;;;;;;;0.90;0.90;;;;;;;17.53;34.56;98824.22;4768527;30;20106;-82
2023/10/13 13:30:50;;;;;;;0.80;0.80;;;;;;;17.63;34.46;98832.25;4770159;30;20055;-80
2023/10/13 13:33:23;;;;;;;0.80;0.80;;;;;;;17.09;35.02;98836.25;4769377;30;20056;-81
2023/10/13 13:35:54;;;;;;;0.80;0.80;;;;;;;16.93;35.33;98830.16;4768082;30;20139;-82
2023/10/13 13:38:33;;;;;;;0.80;0.80;;;;;;;17.05;35.03;98840.66;4768390;30;20423;-82
2023/10/13 13:41:03;;;;;;;0.50;0.50;;;;;;;15.49;37.65;98841.41;4764253;30;20082;-82
2023/10/13 13:43:41;;;;;;;0.43;0.43;;;;;;;13.75;41.22;98841.75;4769722;30;20062;-81
2023/10/13 13:46:29;;;;;;;0.50;0.50;;;;;;;12.77;43.43;98851.41;4769524;30;20142;-81
2023/10/13 13:48:59;;;;;;;0.50;0.50;;;;;;;12.29;44.86;98860.56;4782258;30;20511;-81
2023/10/13 13:51:27;;;;;;;0.57;0.57;;;;;;;11.98;45.57;98854.09;4752364;30;20048;-81
2023/10/13 13:53:56;;;;;;;0.60;0.60;;;;;;;11.67;46.45;98865.41;4760106;30;20110;-84
2023/10/13 13:56:27;;;;;;;0.55;0.55;;;;;;;11.41;47.33;98877.00;4768817;30;20056;-83
2023/10/13 13:58:56;;;;;;;0.60;0.60;;;;;;;11.31;47.88;98874.19;4768653;30;20060;-82
2023/10/13 14:01:29;;;;;;;0.60;0.60;;;;;;;11.13;48.26;98875.34;4768446;30;20052;-81
2023/10/13 14:04:02;;;;;;;0.60;0.60;;;;;;;10.98;48.97;98873.25;4768197;30;20066;-81
2023/10/13 14:06:32;;;;;;;0.60;0.60;;;;;;;10.88;49.46;98884.72;4762219;30;20504;-84
2023/10/13 14:09:02;;;;;;;0.70;0.70;;;;;;;10.83;49.84;98881.97;4758747;30;20056;-82
2023/10/13 14:14:28;;;;;;;0.63;0.63;;;;;;;10.60;50.70;98877.59;4762188;30;20068;-82
2023/10/13 14:17:17;;;;;;;0.60;0.60;;;;;;;10.51;50.92;98892.56;4771124;30;20048;-83
2023/10/13 14:19:46;;;;;;;0.70;0.70;;;;;;;10.44;51.31;98897.31;4757342;30;20052;-83
2023/10/13 14:22:15;;;;;;;0.65;0.65;;;;;;;10.23;51.93;98910.44;4762564;30;20154;-84
2023/10/13 14:24:45;;;;;;;0.60;0.60;;;;;;;10.17;52.14;98906.00;4776308;30;20052;-82
2023/10/13 14:27:21;;;;;;;0.60;0.60;;;;;;;10.12;52.41;98911.31;4759867;30;20052;-82
2023/10/13 14:29:54;;;;;;;0.70;0.70;;;;;;;9.99;52.92;98915.16;4754772;30;20055;-82
2023/10/13 14:32:24;;;;;;;0.70;0.70;;;;;;;9.91;53.22;98918.25;4769263;30;20063;-82
2023/10/13 14:34:56;;;;;;;0.70;0.70;;;;;;;9.86;53.69;98916.28;4764460;30;20155;-83
2023/10/13 14:37:28;;;;;;;0.70;0.70;;;;;;;9.82;53.66;98923.19;4761139;30;20063;-82
2023/10/13 14:39:57;;;;;;;0.60;0.60;;;;;;;9.72;54.08;98926.53;4780990;29;20142;-83
2023/10/13 14:42:25;;;;;;;0.60;0.60;;;;;;;9.68;54.48;98935.34;4767662;30;20423;-83
2023/10/13 14:44:56;;;;;;;0.70;0.70;;;;;;;9.61;54.67;98940.88;4768132;30;20141;-83
2023/10/13 14:47:27;;;;;;;0.70;0.70;;;;;;;9.46;55.28;98944.06;4766897;30;20058;-84
2023/10/13 14:49:58;;;;;;;0.63;0.63;;;;;;;9.38;55.69;98944.44;4775241;24;20068;-86
2023/10/13 14:52:31;;;;;;;0.70;0.70;;;;;;;9.36;55.74;98949.25;4755609;30;20068;-85
2023/10/13 14:55:00;;;;;;;0.80;0.80;;;;;;;9.31;56.00;98952.66;4763356;30;20554;-86
2023/10/13 14:57:29;;;;;;;0.70;0.70;;;;;;;9.25;56.35;98952.78;4750891;30;20133;-86
2023/10/13 14:59:57;;;;;;;0.70;0.70;;;;;;;9.24;56.38;98951.97;4755786;30;20058;-87
2023/10/13 15:02:26;;;;;;;0.70;0.70;;;;;;;9.20;56.57;98961.56;4766277;30;20299;-85
2023/10/13 15:04:54;;;;;;;0.70;0.70;;;;;;;9.16;56.56;98963.09;4766673;30;20147;-87
2023/10/13 15:07:28;;;;;;;0.70;0.70;;;;;;;9.06;57.17;98971.78;4766999;30;20078;-87
2023/10/13 15:10:27;;;;;;;0.77;0.77;;;;;;;8.95;57.68;98963.72;4752373;30;20052;-87
2023/10/13 15:12:54;;;;;;;0.70;0.70;;;;;;;8.85;57.87;98964.28;4751710;30;20139;-86
2023/10/13 15:15:23;;;;;;;0.70;0.70;;;;;;;8.81;58.14;98958.56;4751819;30;20499;-87
2023/10/13 15:17:50;;;;;;;0.60;0.60;;;;;;;8.64;58.86;98971.06;4755236;30;20056;-88
2023/10/13 15:20:18;;;;;;;0.70;0.70;;;;;;;8.47;59.46;98968.25;4751510;30;20056;-87
2023/10/13 15:22:48;;;;;;;0.70;0.70;;;;;;;8.43;59.92;98965.22;4751366;30;20059;-87
2023/10/13 15:26:06;;;;;;;0.70;0.70;;;;;;;8.44;60.16;98966.03;4763451;30;20067;-88
2023/10/13 15:28:09;;;;;;;0.80;0.80;;;;;;;8.33;60.37;98975.69;4751306;30;20516;-86
2023/10/13 15:30:44;;;;;;;0.70;0.70;;;;;;;8.22;60.80;98984.53;4764192;30;20052;-87
2023/10/13 15:33:14;;;;;;;0.70;0.70;;;;;;;8.18;61.17;98994.94;4764325;30;20071;-86
2023/10/13 15:35:45;;;;;;;0.70;0.70;;;;;;;8.31;60.81;98996.59;4752152;30;20114;-87
2023/10/13 15:38:17;;;;;;;0.75;0.75;;;;;;;8.16;61.47;98998.88;4763451;30;20060;-88
2023/10/13 15:40:46;;;;;;;0.70;0.70;;;;;;;8.04;61.87;99001.53;4733676;30;20060;-89
2023/10/13 15:43:13;;;;;;;0.80;0.80;;;;;;;7.88;62.69;99004.88;4732873;30;20161;-87
2023/10/13 15:45:42;;;;;;;0.70;0.70;;;;;;;7.80;63.22;99004.13;4734244;30;20060;-86
2023/10/13 15:48:11;;;;;;;0.80;0.80;;;;;;;7.69;63.48;98994.13;4733900;30;20543;-86
2023/10/13 15:50:41;;;;;;;0.75;0.75;;;;;;;7.65;64.14;99001.00;4737972;30;20067;-85
2023/10/13 15:53:12;;;;;;;0.70;0.70;;;;;;;7.69;64.10;98999.50;4750767;30;20114;-88
2023/10/13 15:55:45;;;;;;;0.70;0.70;;;;;;;7.73;63.98;99003.38;4750377;30;20151;-83
2023/10/13 15:58:16;;;;;;;0.70;0.70;;;;;;;7.63;64.25;99008.47;4746787;30;20444;-84
2023/10/13 16:00:47;;;;;;;0.70;0.70;;;;;;;7.62;64.56;99004.13;4751051;30;20072;-86
2023/10/13 16:03:17;;;;;;;0.70;0.70;;;;;;;7.51;64.63;99003.03;4748973;30;20083;-84
2023/10/13 16:05:47;;;;;;;0.80;0.80;;;;;;;7.44;65.16;99014.88;4760249;30;20060;-84
2023/10/13 16:08:19;;;;;;;0.80;0.80;;;;;;;7.54;65.04;99012.50;4750920;30;20064;-84
2023/10/13 16:10:46;;;;;;;0.80;0.80;;;;;;;7.52;65.01;99025.31;4748927;30;20139;-84
2023/10/13 16:13:16;;;;;;;0.80;0.80;;;;;;;7.53;65.18;99016.22;4746995;30;20114;-86
2023/10/13 16:15:47;;;;;;;0.80;0.80;;;;;;;7.55;65.02;99023.03;4752974;30;20089;-82
2023/10/13 16:18:21;;;;;;;0.80;0.80;;;;;;;7.51;65.27;99026.38;4765513;30;20435;-84
2023/10/13 16:20:50;;;;;;;0.80;0.80;;;;;;;7.50;65.40;99030.13;4781984;30;20101;-85
2023/10/13 16:23:18;;;;;;;0.80;0.80;;;;;;;7.45;65.60;99029.97;4776249;30;20566;-85
2023/10/13 16:25:46;;;;;;;0.70;0.70;;;;;;;7.38;66.01;99028.16;4767113;30;20052;-85
2023/10/13 16:28:14;;;;;;;0.80;0.80;;;;;;;7.28;66.16;99027.03;4744615;30;20186;-85
2023/10/13 16:30:49;;;;;;;0.80;0.80;;;;;;;7.31;66.42;99031.97;4763469;30;20674;-84
2023/10/13 16:33:18;;;;;;;0.80;0.80;;;;;;;7.44;65.98;99025.63;4753799;30;20060;-83
2023/10/13 16:35:46;;;;;;;0.70;0.70;;;;;;;7.33;66.26;99036.06;4760847;30;20150;-85
2023/10/13 16:38:14;;;;;;;0.73;0.73;;;;;;;7.30;66.43;99039.19;4767005;30;20512;-85
2023/10/13 16:40:41;;;;;;;0.70;0.70;;;;;;;7.26;66.81;99048.72;4742367;30;20415;-86
2023/10/13 16:43:09;;;;;;;0.80;0.80;;;;;;;7.25;66.71;99038.22;4761792;30;20056;-86
2023/10/13 16:45:37;;;;;;;0.80;0.80;;;;;;;7.16;67.38;99043.03;4755700;30;20075;-87
2023/10/13 16:48:05;;;;;;;0.80;0.80;;;;;;;7.26;66.99;99043.34;4759017;30;20060;-85
2023/10/13 16:50:37;;;;;;;0.80;0.80;;;;;;;7.21;67.12;99062.00;4740657;30;20067;-87
2023/10/13 16:53:06;;;;;;;0.80;0.80;;;;;;;7.10;67.49;99060.03;4742587;30;20151;-84
2023/10/13 16:55:34;;;;;;;0.70;0.70;;;;;;;7.07;67.87;99053.25;4737487;30;20056;-89
2023/10/13 16:58:01;;;;;;;0.75;0.75;;;;;;;7.06;68.25;99061.50;4745879;30;20087;-85
2023/10/13 17:00:31;;;;;;;0.77;0.77;;;;;;;7.04;68.14;99052.84;4739691;30;20425;-84
2023/10/13 17:02:58;;;;;;;0.80;0.80;;;;;;;7.02;68.32;99060.31;4745506;30;20162;-84
2023/10/13 17:05:27;;;;;;;0.70;0.70;;;;;;;6.95;68.47;99052.31;4749146;30;20420;-87
2023/10/13 17:07:58;;;;;;;0.80;0.80;;;;;;;6.90;68.66;99054.84;4747160;30;20497;-86
2023/10/13 17:10:31;;;;;;;0.80;0.80;;;;;;;6.82;69.20;99064.00;4737491;30;20509;-84
2023/10/13 17:13:01;;;;;;;0.70;0.70;;;;;;;6.73;69.39;99063.44;4753402;30;20385;-83
2023/10/13 17:15:37;;;;;;;0.70;0.70;;;;;;;6.59;69.83;99059.22;4756171;30;20087;-86
2023/10/13 17:18:07;;;;;;;0.80;0.80;;;;;;;6.57;70.03;99069.34;4757367;30;20063;-85
2023/10/13 17:20:36;;;;;;;0.80;0.80;;;;;;;6.48;70.44;99068.78;4749487;30;20440;-85
2023/10/13 17:23:06;;;;;;;0.75;0.75;;;;;;;6.40;71.19;99066.34;4727475;30;20079;-83
2023/10/13 17:25:35;;;;;;;0.80;0.80;;;;;;;6.40;71.13;99070.88;4733508;30;20052;-83
2023/10/13 17:28:14;;;;;;;0.80;0.80;;;;;;;6.36;71.50;99064.31;4734156;30;20057;-85
2023/10/13 17:30:49;;;;;;;0.80;0.80;;;;;;;6.35;71.62;99068.84;4737308;30;20151;-84
2023/10/13 17:33:19;;;;;;;0.80;0.80;;;;;;;6.31;71.99;99064.16;4747864;30;20634;-83
2023/10/13 17:35:46;;;;;;;0.80;0.80;;;;;;;6.44;71.80;99075.59;4738458;30;20052;-85
2023/10/13 17:38:14;;;;;;;0.70;0.70;;;;;;;6.37;71.86;99071.31;4741294;30;20053;-84
2023/10/13 17:40:42;;;;;;;0.80;0.80;;;;;;;6.31;72.08;99089.09;4744904;30;20083;-84
2023/10/13 17:43:09;;;;;;;0.70;0.70;;;;;;;6.21;72.54;99080.69;4742130;30;20137;-86
2023/10/13 17:45:37;;;;;;;0.65;0.65;;;;;;;6.16;72.81;99075.97;4749157;30;20067;-85
2023/10/13 17:48:06;;;;;;;0.80;0.80;;;;;;;6.17;73.19;99090.19;4755960;30;20060;-86
2023/10/13 17:50:36;;;;;;;0.80;0.80;;;;;;;6.16;73.35;99086.69;4748738;30;20566;-82
2023/10/13 17:53:04;;;;;;;0.80;0.80;;;;;;;6.18;73.25;99086.47;4763171;30;20107;-81
2023/10/13 17:55:46;;;;;;;0.80;0.80;;;;;;;6.10;73.45;99079.50;4733025;30;20071;-83
2023/10/13 17:58:14;;;;;;;0.80;0.80;;;;;;;6.14;73.30;99087.94;4735229;30;20060;-81
2023/10/13 18:00:45;;;;;;;0.80;0.80;;;;;;;6.14;73.39;99093.31;4743312;30;20060;-80
2023/10/13 18:03:12;;;;;;;0.80;0.80;;;;;;;6.02;73.66;99091.28;4737867;30;20059;-84
2023/10/13 18:05:42;;;;;;;0.80;0.80;;;;;;;5.95;74.38;99100.38;4749950;30;20087;-83
2023/10/13 18:08:12;;;;;;;0.88;0.88;;;;;;;6.00;74.28;99090.69;4502324;30;10000383;-81
2023/10/13 18:10:43;;;;;;;0.70;0.70;;;;;;;5.93;74.57;99092.53;4741092;30;20770;-83
2023/10/13 18:13:10;;;;;;;0.73;0.73;;;;;;;5.84;75.16;99099.97;4730803;30;20052;-81
2023/10/13 18:15:40;;;;;;;0.80;0.80;;;;;;;5.81;75.14;99088.88;4746129;30;20052;-83
2023/10/13 18:18:20;;;;;;;0.80;0.80;;;;;;;5.76;75.43;99099.38;4744369;30;20131;-83
2023/10/13 18:20:49;;;;;;;0.80;0.80;;;;;;;5.63;75.79;99094.91;4747775;30;20051;-84
2023/10/13 18:23:17;;;;;;;0.80;0.80;;;;;;;5.64;76.16;99097.34;4748517;30;20064;-83
2023/10/13 18:25:45;;;;;;;0.70;0.70;;;;;;;5.65;76.12;99099.00;4748287;30;20072;-82
2023/10/13 18:28:12;;;;;;;0.80;0.80;;;;;;;5.63;76.35;99102.94;4748197;30;20158;-81
2023/10/13 18:30:40;;;;;;;0.80;0.80;;;;;;;5.64;76.61;99100.03;4744501;30;20200;-82
2023/10/13 18:33:11;;;;;;;0.90;0.90;;;;;;;5.69;76.30;99098.59;4749972;30;20087;-80
2023/10/13 18:35:40;;;;;;;0.80;0.80;;;;;;;5.69;76.27;99103.94;4743465;30;20052;-81
2023/10/13 18:38:10;;;;;;;0.80;0.80;;;;;;;5.69;76.38;99101.25;4743943;30;20653;-82
2023/10/13 18:40:38;;;;;;;0.80;0.80;;;;;;;5.61;76.63;99103.13;4739744;30;20612;-81
2023/10/13 18:43:06;;;;;;;0.80;0.80;;;;;;;5.56;76.92;99113.66;4751381;30;20052;-81
2023/10/13 18:45:33;;;;;;;0.80;0.80;;;;;;;5.56;77.16;99113.66;4750540;30;20063;-82
2023/10/13 18:48:02;;;;;;;0.80;0.80;;;;;;;5.56;77.04;99128.88;4750827;30;20138;-83
2023/10/13 18:50:31;;;;;;;0.85;0.85;;;;;;;5.49;77.48;99118.19;4748781;30;20067;-80
2023/10/13 18:53:17;;;;;;;0.80;0.80;;;;;;;5.48;77.52;99127.25;4742049;30;20189;-83
2023/10/13 18:56:09;;;;;;;0.82;0.82;;;;;;;5.40;77.97;99122.13;4747811;30;20227;-82
2023/10/13 18:58:44;;;;;;;0.80;0.80;;;;;;;5.39;78.09;99125.81;4742550;30;20110;-80
2023/10/13 19:01:17;;;;;;;0.80;0.80;;;;;;;5.36;78.36;99128.91;4750354;30;20052;-80
2023/10/13 19:03:48;;;;;;;0.80;0.80;;;;;;;5.29;78.50;99128.09;4743305;30;20133;-79
2023/10/13 19:06:16;;;;;;;0.85;0.85;;;;;;;5.33;78.59;99134.69;4743031;30;20084;-80
2023/10/13 19:08:51;;;;;;;0.80;0.80;;;;;;;5.33;78.80;99134.69;4693445;30;20065;-80
2023/10/13 19:11:20;;;;;;;0.70;0.70;;;;;;;5.40;78.76;99136.31;4695262;30;20069;-81
2023/10/13 19:13:49;;;;;;;0.80;0.80;;;;;;;5.37;78.82;99143.97;4695644;30;20091;-80
2023/10/13 19:16:18;;;;;;;0.80;0.80;;;;;;;5.38;78.87;99142.91;4692577;30;20056;-81
2023/10/13 19:18:48;;;;;;;0.90;0.90;;;;;;;5.30;79.03;99137.78;4700573;30;20065;-80
2023/10/13 19:21:19;;;;;;;0.80;0.80;;;;;;;5.24;79.09;99143.94;4696685;30;20061;-80
2023/10/13 19:23:50;;;;;;;0.80;0.80;;;;;;;5.14;79.48;99142.53;4695168;30;20406;-80